Mc Cleary, Washington
Current Conditions -  °F | °C
As of 6:31 AM on Thursday 27 Nov 2014 (Local Time) from KSHN Reporting Station
Light Rain Light Rain  
Wind Chill: 55°   Ceiling: 1200
Heat Index: 55°   Visibility: 4mi
Dew Point: 53°   Wind: 12mph
Humidity: 93%   Direction: 200°SSW
Pressure: 29.82"   Gusts: NA
Location:  47.0427°N, 123.269°W
Report Text: KSHN 271431Z AUTO 20010KT 4SM -RA BR BKN012 OVC017 13/12 A2982 RMK AO2 RAB1355 P0002 T01280117
Loading
Personal Weather Stations






























Interactive Weather Map New forecast layout! Learn more

10-Day Weather Forecast

Advertisements
Track Severe Weather on mobile